Time;durP1;ratioP1;P1;durP2;ratioP2;P2;SDS_P1;SDS_P2;PMS_P1;PMS_P2;Temp;Humidity;BMP_temperature;BMP_pressure;BME280_temperature;BME280_humidity;BME280_pressure;Samples;Min_cycle;Max_cycle;Signal;HPM_P1;HPM_P2
2022/10/26 00:00:53;;;;;;;28.15;19.27;;;13.10;99.90;;;;;;4973563;28;20058;-68
2022/10/26 00:03:21;;;;;;;30.55;16.98;;;13.20;99.90;;;;;;4992399;28;20070;-67
2022/10/26 00:05:48;;;;;;;25.85;15.45;;;13.10;99.90;;;;;;4976787;28;20097;-67
2022/10/26 00:08:16;;;;;;;22.92;14.00;;;13.10;99.90;;;;;;4994733;28;20093;-67
2022/10/26 00:10:43;;;;;;;21.65;13.15;;;13.10;99.90;;;;;;4994578;28;20045;-67
2022/10/26 00:13:13;;;;;;;27.80;15.23;;;13.10;99.90;;;;;;4994592;28;20042;-68
2022/10/26 00:15:41;;;;;;;27.85;15.63;;;13.00;99.90;;;;;;4994312;28;20062;-67
2022/10/26 00:18:11;;;;;;;27.42;15.43;;;13.00;99.90;;;;;;4994184;28;20045;-67
2022/10/26 00:20:38;;;;;;;29.92;16.38;;;13.00;99.90;;;;;;4994486;28;20038;-68
2022/10/26 00:23:06;;;;;;;26.95;15.23;;;13.00;99.90;;;;;;4994357;28;20042;-67
2022/10/26 00:25:33;;;;;;;24.02;12.18;;;12.90;99.90;;;;;;4993337;28;20047;-69
2022/10/26 00:28:00;;;;;;;20.20;12.75;;;12.90;99.90;;;;;;4995111;28;20684;-69
2022/10/26 00:30:28;;;;;;;24.33;13.70;;;12.80;99.90;;;;;;4992784;28;20042;-67
2022/10/26 00:32:55;;;;;;;26.17;12.88;;;12.80;99.90;;;;;;4993835;28;20041;-69
2022/10/26 00:35:24;;;;;;;22.00;11.40;;;12.70;99.90;;;;;;4993494;28;20050;-69
2022/10/26 00:37:55;;;;;;;21.58;11.65;;;12.70;99.90;;;;;;4993887;28;20121;-68
2022/10/26 00:40:22;;;;;;;21.00;10.70;;;12.70;99.90;;;;;;4993960;28;20042;-67
2022/10/26 00:42:49;;;;;;;19.52;11.63;;;12.60;99.90;;;;;;4993857;28;20109;-67
2022/10/26 00:45:21;;;;;;;20.67;12.30;;;12.60;99.90;;;;;;4993854;28;20489;-67
2022/10/26 00:47:51;;;;;;;22.38;12.65;;;12.60;99.90;;;;;;4976130;28;20544;-67
2022/10/26 00:50:22;;;;;;;20.75;12.00;;;12.60;99.90;;;;;;4993314;28;20046;-68
2022/10/26 00:52:54;;;;;;;28.27;16.50;;;12.60;99.90;;;;;;4993526;28;20089;-67
2022/10/26 00:55:26;;;;;;;37.20;21.40;;;12.60;99.90;;;;;;4993334;28;20109;-68
2022/10/26 00:57:55;;;;;;;21.50;11.80;;;12.60;99.90;;;;;;4993365;28;20038;-67
2022/10/26 01:00:23;;;;;;;22.17;12.55;;;12.60;99.90;;;;;;4993466;28;20487;-67
2022/10/26 01:02:53;;;;;;;18.50;11.27;;;12.60;99.90;;;;;;4993077;28;20532;-67
2022/10/26 01:05:21;;;;;;;20.27;11.88;;;12.40;99.90;;;;;;4992714;28;20042;-66
2022/10/26 01:07:51;;;;;;;18.25;10.52;;;12.40;99.90;;;;;;4993328;28;20089;-66
2022/10/26 01:10:18;;;;;;;15.30;8.68;;;12.30;99.90;;;;;;4993198;28;20066;-68
2022/10/26 01:12:47;;;;;;;11.60;6.82;;;12.30;99.90;;;;;;4992932;28;20098;-68
2022/10/26 01:15:14;;;;;;;11.65;6.15;;;12.30;99.90;;;;;;4992465;28;20038;-67
2022/10/26 01:17:57;;;;;;;12.85;7.20;;;12.40;99.90;;;;;;4992978;28;20042;-68
2022/10/26 01:20:52;;;;;;;16.63;9.35;;;12.30;99.90;;;;;;4992585;28;20455;-67
2022/10/26 01:23:30;;;;;;;16.35;9.55;;;12.30;99.90;;;;;;4992691;28;20043;-67
2022/10/26 01:26:22;;;;;;;13.35;8.70;;;12.30;99.90;;;;;;4992243;28;20050;-68
2022/10/26 01:29:17;;;;;;;16.98;10.48;;;12.30;99.90;;;;;;4992285;28;20126;-68
2022/10/26 01:31:54;;;;;;;20.13;10.70;;;12.20;99.90;;;;;;4989176;28;20050;-68
2022/10/26 01:34:24;;;;;;;;;;;12.10;99.90;;;;;;4973613;28;20254;-68
2022/10/26 01:36:55;;;;;;;17.23;9.77;;;11.90;99.90;;;;;;4972843;28;19977;-67
2022/10/26 01:39:29;;;;;;;16.30;9.25;;;11.90;99.90;;;;;;4973181;28;20550;-67
2022/10/26 01:42:00;;;;;;;18.17;9.93;;;11.80;99.90;;;;;;4973162;28;20080;-67
2022/10/26 01:44:33;;;;;;;17.95;9.57;;;11.70;99.90;;;;;;4958058;28;20042;-68
2022/10/26 01:47:04;;;;;;;21.40;10.95;;;11.70;99.90;;;;;;4974327;28;20116;-67
2022/10/26 01:49:37;;;;;;;17.38;10.00;;;11.70;99.90;;;;;;4992558;28;20069;-67
2022/10/26 01:52:05;;;;;;;15.07;9.65;;;11.60;99.90;;;;;;4992467;28;20035;-67
2022/10/26 01:54:35;;;;;;;19.50;9.35;;;11.60;99.90;;;;;;4992180;28;20070;-67
2022/10/26 01:57:05;;;;;;;16.75;10.45;;;11.60;99.90;;;;;;4994075;28;20104;-68
2022/10/26 01:59:48;;;;;;;15.63;9.52;;;11.50;99.90;;;;;;4978544;28;20108;-67
2022/10/26 02:02:49;;;;;;;18.52;9.82;;;11.50;99.90;;;;;;4996333;28;20038;-68
2022/10/26 02:05:39;;;;;;;19.60;9.07;;;11.50;99.90;;;;;;4977711;28;20077;-67
2022/10/26 02:08:26;;;;;;;18.63;11.07;;;11.50;99.90;;;;;;4992292;28;20402;-67
2022/10/26 02:11:04;;;;;;;20.02;11.25;;;11.50;99.90;;;;;;4992259;28;20043;-68
2022/10/26 02:13:41;;;;;;;20.55;11.43;;;11.50;99.90;;;;;;4992093;28;20097;-67
2022/10/26 02:16:19;;;;;;;22.63;10.38;;;11.40;99.90;;;;;;4991497;28;20038;-67
2022/10/26 02:18:58;;;;;;;15.80;9.50;;;11.40;99.90;;;;;;4991767;28;20048;-67
2022/10/26 02:21:31;;;;;;;19.17;10.98;;;11.40;99.90;;;;;;4992120;28;20038;-67
2022/10/26 02:23:59;;;;;;;17.70;10.93;;;11.40;99.90;;;;;;4991956;28;20100;-67
2022/10/26 02:26:29;;;;;;;19.60;10.32;;;11.40;99.90;;;;;;4990119;28;20063;-68
2022/10/26 02:29:02;;;;;;;18.63;10.23;;;11.40;99.90;;;;;;4991315;28;20038;-68
2022/10/26 02:31:30;;;;;;;17.63;10.07;;;11.40;99.90;;;;;;4991682;28;20394;-68
2022/10/26 02:34:03;;;;;;;18.23;9.75;;;11.50;99.90;;;;;;4974138;28;20038;-67
2022/10/26 02:36:35;;;;;;;16.73;9.77;;;11.40;99.90;;;;;;4991228;28;20042;-67
2022/10/26 02:39:04;;;;;;;18.95;9.80;;;11.40;99.90;;;;;;4991087;28;20031;-68
2022/10/26 02:41:34;;;;;;;16.52;9.30;;;11.50;99.90;;;;;;4991490;28;20077;-67
2022/10/26 02:44:07;;;;;;;16.45;10.13;;;11.40;99.90;;;;;;4991586;28;20100;-67
2022/10/26 02:46:35;;;;;;;16.83;8.73;;;11.40;99.90;;;;;;4990915;28;20144;-67
2022/10/26 02:49:03;;;;;;;13.15;7.72;;;11.40;99.90;;;;;;4990978;28;20046;-68
2022/10/26 02:51:35;;;;;;;13.00;7.70;;;11.40;99.90;;;;;;4990543;28;20038;-67
2022/10/26 02:54:09;;;;;;;14.98;8.27;;;11.40;99.90;;;;;;4991427;28;20045;-68
2022/10/26 02:56:44;;;;;;;15.30;8.00;;;11.40;99.90;;;;;;4990120;28;20046;-68
2022/10/26 02:59:13;;;;;;;15.18;8.02;;;11.40;99.90;;;;;;4973998;28;20465;-67
2022/10/26 03:01:41;;;;;;;18.13;8.75;;;11.30;99.90;;;;;;4991500;28;20066;-68
2022/10/26 03:04:10;;;;;;;19.27;9.95;;;11.30;99.90;;;;;;4991148;28;20054;-67
2022/10/26 03:06:37;;;;;;;18.30;9.80;;;11.20;99.90;;;;;;4990754;28;20038;-67
2022/10/26 03:09:05;;;;;;;20.58;11.52;;;11.20;99.90;;;;;;4991300;28;20034;-67
2022/10/26 03:11:33;;;;;;;16.95;10.13;;;11.10;99.90;;;;;;4990715;28;20478;-67
2022/10/26 03:14:00;;;;;;;14.98;8.63;;;11.10;99.90;;;;;;4991109;28;20097;-67
2022/10/26 03:16:29;;;;;;;12.85;7.82;;;11.10;99.90;;;;;;4990424;28;20081;-68
2022/10/26 03:18:56;;;;;;;15.77;8.95;;;11.00;99.90;;;;;;4991435;28;20190;-67
2022/10/26 03:21:25;;;;;;;16.35;8.43;;;11.00;99.90;;;;;;4991047;28;20089;-67
2022/10/26 03:23:52;;;;;;;17.95;8.25;;;10.90;99.90;;;;;;4991030;28;20042;-67
2022/10/26 03:26:20;;;;;;;13.32;8.70;;;10.80;99.90;;;;;;4990666;28;20050;-67
2022/10/26 03:28:47;;;;;;;12.80;8.10;;;10.90;99.90;;;;;;4990622;28;20062;-68
2022/10/26 03:31:14;;;;;;;12.85;7.82;;;10.90;99.90;;;;;;4991269;28;20046;-68
2022/10/26 03:33:42;;;;;;;12.48;7.97;;;10.90;99.90;;;;;;4990919;28;20407;-68
2022/10/26 03:36:10;;;;;;;15.57;7.50;;;10.80;99.90;;;;;;4990357;28;20118;-68
2022/10/26 03:38:38;;;;;;;13.57;7.70;;;10.80;99.90;;;;;;4993209;28;20437;-67
2022/10/26 03:41:06;;;;;;;16.65;9.23;;;10.80;99.90;;;;;;4977288;28;20074;-67
2022/10/26 03:43:33;;;;;;;12.15;7.97;;;10.80;99.90;;;;;;4994029;28;20097;-68
2022/10/26 03:46:01;;;;;;;19.05;11.23;;;10.70;99.90;;;;;;4993877;28;20068;-67
2022/10/26 03:48:28;;;;;;;17.73;10.77;;;10.70;99.90;;;;;;4994607;28;20053;-68
2022/10/26 03:50:59;;;;;;;13.75;8.35;;;10.60;99.90;;;;;;4994452;28;20125;-67
2022/10/26 03:53:26;;;;;;;14.10;8.15;;;10.60;99.90;;;;;;4994533;28;20034;-67
2022/10/26 03:55:55;;;;;;;11.63;7.22;;;10.70;99.90;;;;;;4993921;28;20513;-67
2022/10/26 03:58:22;;;;;;;11.05;7.97;;;10.70;99.90;;;;;;4976808;28;20101;-68
2022/10/26 04:00:49;;;;;;;11.38;7.35;;;10.70;99.90;;;;;;4994496;28;20042;-67
2022/10/26 04:03:17;;;;;;;20.17;10.23;;;10.70;99.90;;;;;;4994309;28;20121;-67
2022/10/26 04:05:44;;;;;;;16.85;10.43;;;10.60;99.90;;;;;;4993077;28;20088;-67
2022/10/26 04:08:12;;;;;;;19.65;10.75;;;10.50;99.90;;;;;;4994457;28;20097;-67
2022/10/26 04:10:39;;;;;;;15.90;10.32;;;10.40;99.90;;;;;;4994126;28;20043;-68
2022/10/26 04:13:11;;;;;;;20.88;12.18;;;10.40;99.90;;;;;;4994074;28;20047;-68
2022/10/26 04:15:38;;;;;;;26.13;14.40;;;10.30;99.90;;;;;;4993436;28;20093;-67
2022/10/26 04:18:05;;;;;;;24.42;13.15;;;10.30;99.90;;;;;;4993522;28;20092;-67
2022/10/26 04:20:35;;;;;;;14.27;8.77;;;10.20;99.90;;;;;;4993437;28;20065;-67
2022/10/26 04:23:04;;;;;;;15.70;8.15;;;10.20;99.90;;;;;;4993864;28;20109;-67
2022/10/26 04:25:33;;;;;;;18.85;10.50;;;10.30;99.90;;;;;;4993016;28;20050;-68
2022/10/26 04:28:00;;;;;;;21.02;10.60;;;10.30;99.90;;;;;;4992881;28;20084;-67
2022/10/26 04:30:29;;;;;;;19.73;12.90;;;10.30;99.90;;;;;;4993341;28;20053;-67
2022/10/26 04:32:56;;;;;;;19.90;12.95;;;10.30;99.90;;;;;;4993609;28;20043;-67
2022/10/26 04:35:23;;;;;;;20.30;13.10;;;10.30;99.90;;;;;;4993178;28;20490;-67
2022/10/26 04:37:51;;;;;;;27.52;15.07;;;10.30;99.90;;;;;;4993237;28;20462;-67
2022/10/26 04:40:18;;;;;;;21.40;13.07;;;10.20;99.90;;;;;;4993421;28;20093;-67
2022/10/26 04:42:46;;;;;;;21.88;13.13;;;10.20;99.90;;;;;;4975882;28;20121;-67
2022/10/26 04:45:15;;;;;;;20.85;11.85;;;10.10;99.90;;;;;;4992851;28;20066;-67
2022/10/26 04:47:43;;;;;;;19.88;12.13;;;10.10;99.90;;;;;;4992770;28;20494;-67
2022/10/26 04:50:13;;;;;;;20.52;12.35;;;10.00;99.90;;;;;;4992260;28;20078;-67
2022/10/26 04:52:41;;;;;;;22.00;12.07;;;10.00;99.90;;;;;;4993243;28;20038;-67
2022/10/26 04:55:08;;;;;;;19.17;11.93;;;10.00;99.90;;;;;;4993507;28;20046;-68
2022/10/26 04:57:36;;;;;;;21.60;13.48;;;10.00;99.90;;;;;;4992581;28;20035;-67
2022/10/26 05:00:05;;;;;;;23.35;13.88;;;10.00;99.90;;;;;;4975801;28;20498;-67
2022/10/26 05:02:33;;;;;;;22.40;14.32;;;10.00;99.90;;;;;;4992812;28;20035;-68
2022/10/26 05:05:02;;;;;;;23.65;14.70;;;10.00;99.90;;;;;;4993088;28;20070;-67
2022/10/26 05:07:29;;;;;;;27.15;16.25;;;10.00;99.90;;;;;;4992388;28;20046;-68
2022/10/26 05:09:56;;;;;;;30.40;15.93;;;10.00;99.90;;;;;;4992836;28;20121;-68
2022/10/26 05:12:24;;;;;;;27.08;14.73;;;10.10;99.90;;;;;;4991880;28;20097;-68
2022/10/26 05:14:51;;;;;;;41.17;19.10;;;10.10;99.90;;;;;;4991753;28;20042;-68
2022/10/26 05:17:19;;;;;;;29.63;16.65;;;10.10;99.90;;;;;;4990472;28;20058;-69
2022/10/26 05:19:51;;;;;;;29.70;18.17;;;10.10;99.90;;;;;;4992048;28;20038;-70
2022/10/26 05:22:20;;;;;;;42.15;22.98;;;10.10;99.90;;;;;;4991154;28;20044;-68
2022/10/26 05:24:47;;;;;;;34.97;18.95;;;10.10;99.90;;;;;;4992469;28;20062;-69
2022/10/26 05:27:15;;;;;;;26.27;16.98;;;10.10;99.90;;;;;;4991137;28;20047;-68
2022/10/26 05:29:42;;;;;;;33.63;21.92;;;10.00;99.90;;;;;;4974566;28;20054;-68
2022/10/26 05:32:10;;;;;;;45.17;29.65;;;10.00;99.90;;;;;;4992220;28;20042;-68
2022/10/26 05:34:38;;;;;;;46.97;30.73;;;10.10;99.90;;;;;;4992173;28;20038;-68
2022/10/26 05:37:05;;;;;;;59.38;34.05;;;10.00;99.90;;;;;;4991551;28;20066;-68
2022/10/26 05:39:34;;;;;;;32.78;19.08;;;9.90;99.90;;;;;;4991793;28;20042;-69
2022/10/26 05:42:01;;;;;;;29.67;18.42;;;10.00;99.90;;;;;;4991279;28;20065;-68
2022/10/26 05:44:28;;;;;;;23.45;15.52;;;10.00;99.90;;;;;;4992006;28;20042;-68
2022/10/26 05:46:55;;;;;;;21.92;12.90;;;10.00;99.90;;;;;;4990723;28;20049;-68
2022/10/26 05:49:23;;;;;;;25.70;15.43;;;10.00;99.90;;;;;;4978052;28;20085;-68
2022/10/26 05:51:50;;;;;;;26.42;18.10;;;10.10;99.90;;;;;;4985303;28;20113;-68
2022/10/26 05:54:18;;;;;;;30.67;18.98;;;10.00;99.90;;;;;;4991101;28;20039;-69
2022/10/26 05:56:47;;;;;;;32.80;18.27;;;10.10;99.90;;;;;;4990674;28;20453;-68
2022/10/26 05:59:16;;;;;;;28.88;18.25;;;10.10;99.90;;;;;;4989786;28;20088;-68
2022/10/26 06:01:59;;;;;;;30.20;19.80;;;10.10;99.90;;;;;;4990844;28;20038;-69
2022/10/26 06:04:34;;;;;;;31.80;22.45;;;10.10;99.90;;;;;;4990482;28;20038;-68
2022/10/26 06:07:02;;;;;;;29.23;16.33;;;10.10;99.90;;;;;;4991223;28;20042;-68
2022/10/26 06:09:30;;;;;;;25.90;15.48;;;10.20;99.90;;;;;;4991557;28;20486;-69
2022/10/26 06:12:00;;;;;;;23.38;15.10;;;10.30;99.90;;;;;;4991690;28;20046;-68
2022/10/26 06:14:28;;;;;;;28.60;16.73;;;10.30;99.90;;;;;;4991736;28;20068;-68
2022/10/26 06:17:26;;;;;;;32.22;18.35;;;10.40;99.90;;;;;;4990980;28;20049;-67
2022/10/26 06:20:07;;;;;;;32.88;17.95;;;10.50;99.90;;;;;;4983507;28;20054;-68
2022/10/26 06:22:52;;;;;;;31.58;20.05;;;10.60;99.90;;;;;;4991488;28;20125;-67
2022/10/26 06:25:28;;;;;;;28.20;17.85;;;10.80;99.90;;;;;;4990198;28;20042;-68
2022/10/26 06:28:12;;;;;;;36.10;18.05;;;11.00;99.90;;;;;;4992072;28;20047;-67
2022/10/26 06:30:40;;;;;;;32.80;17.55;;;11.20;99.90;;;;;;4991605;28;20066;-68
2022/10/26 06:33:09;;;;;;;32.17;17.85;;;11.60;99.90;;;;;;4991384;28;20038;-69
2022/10/26 06:35:46;;;;;;;29.95;16.15;;;11.80;99.90;;;;;;4990547;28;20092;-68
2022/10/26 06:38:17;;;;;;;29.05;15.43;;;12.00;99.90;;;;;;4991078;28;20061;-68
2022/10/26 06:40:48;;;;;;;29.98;14.98;;;12.20;99.90;;;;;;4985225;28;20034;-68
2022/10/26 06:43:24;;;;;;;25.92;15.32;;;12.30;99.90;;;;;;4989703;28;20035;-68
2022/10/26 06:45:57;;;;;;;;;;;12.40;99.90;;;;;;4988774;28;20541;-68
2022/10/26 06:48:28;;;;;;;25.27;13.43;;;12.60;99.90;;;;;;4991125;28;20032;-68
2022/10/26 06:50:56;;;;;;;26.20;15.55;;;12.80;99.90;;;;;;4995298;28;20092;-68
2022/10/26 06:53:31;;;;;;;23.88;15.48;;;13.00;99.90;;;;;;4996051;28;20062;-68
2022/10/26 06:55:59;;;;;;;21.95;14.23;;;13.00;99.90;;;;;;4995285;28;20042;-68
2022/10/26 06:58:30;;;;;;;23.45;13.80;;;13.20;99.90;;;;;;4990159;28;20046;-69
2022/10/26 07:00:58;;;;;;;29.10;14.40;;;13.30;99.90;;;;;;4972499;28;20049;-68
2022/10/26 07:03:25;;;;;;;31.83;16.75;;;13.30;99.90;;;;;;4991123;28;20046;-69
2022/10/26 07:05:53;;;;;;;34.30;15.88;;;13.20;99.90;;;;;;4990410;28;20046;-68
2022/10/26 07:08:20;;;;;;;28.15;16.73;;;13.20;99.90;;;;;;4991106;28;20125;-68
2022/10/26 07:10:48;;;;;;;33.38;17.83;;;13.30;99.90;;;;;;4990662;28;20066;-68
2022/10/26 07:13:15;;;;;;;28.42;17.05;;;13.40;99.90;;;;;;4992646;28;20509;-68
2022/10/26 07:15:44;;;;;;;24.25;14.65;;;13.50;99.90;;;;;;4994072;28;20482;-68
2022/10/26 07:18:11;;;;;;;19.15;11.70;;;13.60;99.90;;;;;;4994643;28;20085;-68
2022/10/26 07:20:40;;;;;;;20.27;12.18;;;13.60;99.90;;;;;;4994923;28;20117;-69
2022/10/26 07:23:09;;;;;;;18.60;9.98;;;13.70;99.90;;;;;;4994701;28;20125;-68
2022/10/26 07:25:39;;;;;;;14.00;9.50;;;13.90;99.90;;;;;;4993937;28;20065;-67
2022/10/26 07:28:08;;;;;;;21.13;14.45;;;14.20;99.90;;;;;;4994641;28;20137;-68
2022/10/26 07:30:36;;;;;;;28.90;16.48;;;14.50;99.90;;;;;;4995143;28;20043;-69
2022/10/26 07:33:07;;;;;;;24.48;17.17;;;14.70;99.90;;;;;;4995956;28;20634;-68
2022/10/26 07:35:35;;;;;;;25.45;15.93;;;14.90;99.90;;;;;;4995251;28;20042;-68
2022/10/26 07:38:04;;;;;;;27.40;16.02;;;15.10;99.90;;;;;;4994947;28;20097;-68
2022/10/26 07:40:32;;;;;;;32.13;17.23;;;15.20;99.90;;;;;;4994746;28;20092;-68
2022/10/26 07:43:00;;;;;;;25.90;16.30;;;15.40;99.90;;;;;;4995219;28;20038;-67
2022/10/26 07:45:29;;;;;;;32.85;23.73;;;15.40;99.90;;;;;;4976523;28;20058;-68
2022/10/26 07:47:57;;;;;;;27.20;18.45;;;15.50;99.90;;;;;;4994379;28;20494;-68
2022/10/26 07:50:27;;;;;;;42.40;28.08;;;15.50;99.90;;;;;;4994177;28;20034;-68
2022/10/26 07:52:54;;;;;;;28.92;18.02;;;15.70;99.90;;;;;;4994595;28;20046;-68
2022/10/26 07:55:22;;;;;;;33.22;21.33;;;15.80;99.90;;;;;;4993785;28;20098;-68
2022/10/26 07:57:49;;;;;;;29.27;19.98;;;16.00;99.90;;;;;;4994056;28;20038;-68
2022/10/26 08:00:17;;;;;;;40.22;20.70;;;16.10;99.90;;;;;;4994181;28;20101;-67
2022/10/26 08:02:45;;;;;;;36.17;23.75;;;16.10;99.90;;;;;;4994038;28;20035;-68
2022/10/26 08:05:12;;;;;;;44.60;24.90;;;16.10;99.90;;;;;;4994471;28;20050;-68
2022/10/26 08:07:44;;;;;;;38.75;21.85;;;16.20;99.90;;;;;;4993391;28;20039;-68
2022/10/26 08:10:13;;;;;;;39.58;23.90;;;16.30;99.90;;;;;;4994170;28;20050;-68
2022/10/26 08:12:41;;;;;;;26.90;17.65;;;16.40;99.90;;;;;;4994146;28;20084;-67
2022/10/26 08:15:09;;;;;;;34.45;18.80;;;16.60;99.90;;;;;;4993810;28;20101;-67
2022/10/26 08:17:36;;;;;;;26.83;14.88;;;16.70;99.90;;;;;;4993389;28;20360;-67
2022/10/26 08:20:04;;;;;;;21.23;12.30;;;16.80;99.90;;;;;;4993885;28;20042;-67
2022/10/26 08:22:31;;;;;;;19.55;12.77;;;16.90;99.90;;;;;;4994177;28;20125;-67
2022/10/26 08:25:00;;;;;;;17.90;12.63;;;17.00;99.90;;;;;;4993743;28;20038;-69
2022/10/26 08:27:28;;;;;;;17.92;12.38;;;16.90;99.90;;;;;;4993037;28;20116;-68
2022/10/26 08:29:55;;;;;;;20.85;11.02;;;16.90;99.90;;;;;;4993814;28;20038;-68
2022/10/26 08:32:23;;;;;;;20.00;11.98;;;17.10;99.90;;;;;;4994025;28;20034;-68
2022/10/26 08:34:50;;;;;;;22.67;12.93;;;17.20;99.90;;;;;;4993838;28;20069;-68
2022/10/26 08:37:17;;;;;;;21.40;11.45;;;17.30;99.90;;;;;;4993414;28;20046;-69
2022/10/26 08:39:44;;;;;;;17.40;11.82;;;17.30;99.90;;;;;;4993575;28;20096;-69
2022/10/26 08:42:19;;;;;;;22.30;11.63;;;17.30;99.90;;;;;;4993360;28;20089;-67
2022/10/26 08:44:48;;;;;;;31.52;12.52;;;17.40;99.90;;;;;;4993415;28;20565;-68
2022/10/26 08:47:19;;;;;;;21.20;10.82;;;17.50;99.90;;;;;;4992758;28;20117;-67
2022/10/26 08:49:52;;;;;;;17.52;10.50;;;17.70;99.90;;;;;;4993535;28;20038;-67
2022/10/26 08:52:24;;;;;;;22.85;11.43;;;17.70;99.90;;;;;;4993117;28;20391;-68
2022/10/26 08:54:54;;;;;;;15.75;10.25;;;17.80;99.90;;;;;;4992862;28;20093;-67
2022/10/26 08:57:27;;;;;;;22.65;10.63;;;17.90;99.90;;;;;;4992473;28;20457;-67
2022/10/26 09:00:00;;;;;;;18.15;11.35;;;18.20;99.90;;;;;;4993065;28;20066;-67
2022/10/26 09:02:28;;;;;;;20.70;11.32;;;18.30;99.90;;;;;;4992853;28;20046;-68
2022/10/26 09:04:58;;;;;;;16.20;10.73;;;18.30;99.90;;;;;;4993010;28;20068;-68
2022/10/26 09:07:54;;;;;;;21.02;12.32;;;18.40;99.90;;;;;;4992457;28;20125;-68
2022/10/26 09:10:37;;;;;;;16.92;12.43;;;18.40;99.90;;;;;;4993002;28;20049;-69
2022/10/26 09:13:16;;;;;;;23.75;13.68;;;18.40;99.90;;;;;;4992847;28;20042;-68
2022/10/26 09:15:54;;;;;;;26.10;14.38;;;18.50;99.90;;;;;;4992274;28;20054;-68
2022/10/26 09:18:34;;;;;;;24.55;16.65;;;18.70;99.90;;;;;;4992902;28;20092;-68
2022/10/26 09:21:11;;;;;;;23.70;16.73;;;18.70;99.90;;;;;;4992645;28;20135;-68
2022/10/26 09:23:57;;;;;;;25.23;16.92;;;18.80;99.90;;;;;;4992632;28;20046;-68
2022/10/26 09:26:31;;;;;;;26.67;17.90;;;18.90;99.90;;;;;;4991978;28;20051;-68
2022/10/26 09:29:03;;;;;;;36.28;22.70;;;19.00;99.90;;;;;;4992319;28;20568;-68
2022/10/26 09:31:37;;;;;;;37.00;23.73;;;19.10;99.90;;;;;;4992675;28;20097;-69
2022/10/26 09:34:07;;;;;;;29.05;19.45;;;19.30;99.90;;;;;;4992557;28;20076;-68
2022/10/26 09:36:36;;;;;;;30.90;22.10;;;19.40;99.90;;;;;;4991609;28;20084;-69
2022/10/26 09:39:14;;;;;;;29.08;18.75;;;19.50;99.90;;;;;;4992456;28;20038;-68
2022/10/26 09:41:48;;;;;;;25.80;16.92;;;19.70;99.90;;;;;;4991989;28;20049;-68
2022/10/26 09:44:24;;;;;;;25.65;15.63;;;19.80;99.90;;;;;;4992399;28;20109;-68
2022/10/26 09:46:58;;;;;;;27.92;16.38;;;19.80;99.90;;;;;;4991520;28;20042;-68
2022/10/26 09:49:33;;;;;;;39.88;23.00;;;19.80;99.90;;;;;;4992059;28;20038;-68
2022/10/26 09:52:01;;;;;;;27.38;19.38;;;20.00;99.90;;;;;;4992051;28;20275;-67
2022/10/26 09:54:29;;;;;;;36.28;23.25;;;20.10;99.90;;;;;;4991560;28;20057;-68
2022/10/26 09:57:00;;;;;;;28.73;17.48;;;20.20;99.90;;;;;;4991188;28;20493;-68
2022/10/26 09:59:33;;;;;;;27.67;16.75;;;20.30;99.90;;;;;;4991837;28;20042;-68
2022/10/26 10:02:01;;;;;;;24.08;16.08;;;20.50;99.90;;;;;;4991811;28;20062;-68
2022/10/26 10:04:32;;;;;;;28.80;16.45;;;20.50;99.90;;;;;;4991669;28;20073;-68
2022/10/26 10:07:14;;;;;;;32.53;17.73;;;20.60;99.90;;;;;;4991258;28;20038;-69
2022/10/26 10:09:41;;;;;;;31.95;18.92;;;20.70;99.90;;;;;;4991770;28;20049;-68
2022/10/26 10:12:19;;;;;;;26.25;16.38;;;20.70;99.90;;;;;;4991591;28;20077;-68
2022/10/26 10:14:59;;;;;;;28.00;16.95;;;20.70;99.90;;;;;;4991676;28;20042;-68
2022/10/26 10:17:27;;;;;;;25.17;15.80;;;20.80;99.90;;;;;;4991021;28;20077;-68
2022/10/26 10:19:54;;;;;;;25.67;15.85;;;20.80;99.90;;;;;;4991635;28;20089;-68
2022/10/26 10:22:26;;;;;;;22.95;13.95;;;20.80;99.90;;;;;;4973934;28;20446;-68
2022/10/26 10:24:55;;;;;;;25.10;16.35;;;20.90;99.90;;;;;;4991532;28;20124;-69
2022/10/26 10:27:23;;;;;;;19.02;12.73;;;21.00;99.90;;;;;;4990612;28;20058;-67
2022/10/26 10:29:54;;;;;;;23.98;15.27;;;21.00;99.90;;;;;;4991266;28;20140;-68
2022/10/26 10:32:24;;;;;;;27.48;18.33;;;21.00;99.90;;;;;;4991202;28;20042;-68
2022/10/26 10:34:53;;;;;;;18.45;11.77;;;21.10;99.90;;;;;;4990543;28;20057;-68
2022/10/26 10:37:26;;;;;;;20.83;10.90;;;21.20;99.90;;;;;;4990544;28;20034;-68
2022/10/26 10:39:58;;;;;;;20.73;12.77;;;21.10;99.90;;;;;;4990735;28;20038;-68
2022/10/26 10:42:29;;;;;;;19.02;11.90;;;21.20;99.90;;;;;;4990338;28;20030;-68
2022/10/26 10:44:58;;;;;;;21.17;13.20;;;21.30;99.90;;;;;;4990853;28;20046;-68
2022/10/26 10:47:30;;;;;;;18.08;12.55;;;21.40;99.90;;;;;;4989585;28;20406;-67
2022/10/26 10:50:00;;;;;;;25.00;15.57;;;21.50;99.90;;;;;;4990029;28;20042;-68
2022/10/26 10:52:30;;;;;;;18.77;11.10;;;21.50;99.90;;;;;;4990789;28;20042;-67
2022/10/26 10:55:16;;;;;;;20.40;11.95;;;21.60;99.90;;;;;;4990452;28;20076;-68
2022/10/26 10:57:59;;;;;;;23.15;13.25;;;21.50;99.90;;;;;;4990234;28;20046;-67
2022/10/26 11:00:27;;;;;;;19.27;10.98;;;21.60;99.90;;;;;;4971799;28;20072;-67
2022/10/26 11:03:26;;;;;;;18.77;11.40;;;21.70;99.90;;;;;;4972033;28;20038;-68
2022/10/26 11:06:05;;;;;;;18.27;11.95;;;21.70;99.90;;;;;;4989364;28;20042;-67
2022/10/26 11:08:38;;;;;;;20.67;12.32;;;21.70;99.90;;;;;;4989102;28;20553;-66
2022/10/26 11:11:10;;;;;;;16.17;9.52;;;21.80;99.90;;;;;;4990571;28;20096;-68
2022/10/26 11:13:41;;;;;;;21.98;12.27;;;21.80;99.90;;;;;;4972561;28;20042;-68
2022/10/26 11:16:15;;;;;;;26.73;15.52;;;21.80;99.90;;;;;;4990205;28;20053;-68
2022/10/26 11:18:48;;;;;;;22.40;13.23;;;21.80;99.90;;;;;;4990939;28;20047;-68
2022/10/26 11:21:25;;;;;;;19.10;11.98;;;21.80;99.90;;;;;;4972146;28;20046;-68
2022/10/26 11:23:58;;;;;;;17.92;11.25;;;21.90;99.90;;;;;;4981543;28;20042;-70
2022/10/26 11:26:32;;;;;;;28.83;19.35;;;22.00;99.90;;;;;;4989702;28;20072;-69
2022/10/26 11:29:03;;;;;;;21.83;11.90;;;21.90;99.90;;;;;;4989499;28;20047;-69
2022/10/26 11:31:33;;;;;;;29.85;14.25;;;21.90;99.90;;;;;;4990440;28;20390;-69
2022/10/26 11:34:17;;;;;;;19.42;9.35;;;22.00;99.90;;;;;;4990478;28;20502;-68
2022/10/26 11:36:50;;;;;;;17.80;10.20;;;22.00;99.90;;;;;;4989674;28;20045;-68
2022/10/26 11:39:25;;;;;;;18.80;6.93;;;22.10;99.90;;;;;;4990521;28;20077;-67
2022/10/26 11:42:00;;;;;;;14.45;7.28;;;22.10;99.90;;;;;;4990228;28;20038;-68
2022/10/26 11:44:36;;;;;;;15.57;6.82;;;22.20;99.90;;;;;;4990858;28;20042;-67
2022/10/26 11:47:08;;;;;;;17.60;6.75;;;22.10;99.10;;;;;;4990075;28;20038;-68
2022/10/26 11:49:43;;;;;;;15.02;6.72;;;22.10;99.20;;;;;;4990778;28;20148;-67
2022/10/26 11:52:16;;;;;;;14.25;6.53;;;22.10;98.90;;;;;;4972442;28;20038;-68
2022/10/26 11:54:50;;;;;;;18.10;7.18;;;22.10;98.80;;;;;;4990707;28;20114;-68
2022/10/26 11:57:18;;;;;;;17.50;7.53;;;22.20;98.40;;;;;;4972361;28;20406;-70
2022/10/26 11:59:51;;;;;;;22.90;7.82;;;22.30;98.00;;;;;;4992836;28;20041;-68
2022/10/26 12:02:21;;;;;;;19.88;7.82;;;22.40;97.90;;;;;;4993978;28;20054;-68
2022/10/26 12:04:54;;;;;;;20.08;9.43;;;22.40;97.40;;;;;;4994203;28;20066;-68
2022/10/26 12:07:25;;;;;;;16.08;8.32;;;22.40;97.50;;;;;;4991106;28;20100;-68
2022/10/26 12:09:54;;;;;;;19.00;7.38;;;22.40;96.90;;;;;;4987796;28;20537;-68
2022/10/26 12:12:29;;;;;;;16.65;8.95;;;22.40;96.50;;;;;;4976107;28;20081;-68
2022/10/26 12:15:07;;;;;;;19.35;7.88;;;22.50;96.50;;;;;;4993737;28;20038;-67
2022/10/26 12:17:42;;;;;;;11.75;6.60;;;22.50;96.00;;;;;;4991013;28;20108;-68
2022/10/26 12:20:51;;;;;;;15.93;7.17;;;22.50;96.60;;;;;;4983574;28;20518;-68
2022/10/26 12:23:18;;;;;;;20.65;9.27;;;22.60;96.00;;;;;;4990487;28;20053;-68
2022/10/26 12:25:46;;;;;;;16.17;8.85;;;22.70;96.20;;;;;;4988647;28;20047;-69
2022/10/26 12:28:41;;;;;;;19.00;8.43;;;22.70;95.80;;;;;;4974396;28;20058;-68
2022/10/26 12:31:41;;;;;;;31.27;8.60;;;22.70;95.60;;;;;;4989008;28;20068;-69
2022/10/26 12:34:13;;;;;;;22.75;10.68;;;22.80;95.10;;;;;;4992440;28;20443;-69
2022/10/26 12:37:22;;;;;;;26.67;11.02;;;22.90;95.00;;;;;;4992410;28;20038;-68
2022/10/26 12:39:49;;;;;;;28.35;10.50;;;23.00;94.50;;;;;;4985346;28;20133;-69
2022/10/26 12:42:30;;;;;;;21.17;10.52;;;23.00;94.20;;;;;;4982511;28;20034;-69
2022/10/26 12:45:20;;;;;;;20.63;9.27;;;23.10;93.50;;;;;;4993330;28;20062;-69
2022/10/26 12:48:05;;;;;;;16.50;8.07;;;23.00;93.60;;;;;;4993186;28;20038;-69
2022/10/26 12:50:32;;;;;;;20.70;9.40;;;22.90;93.10;;;;;;4975468;28;20097;-69
2022/10/26 12:53:07;;;;;;;18.38;9.25;;;22.90;93.30;;;;;;4992632;28;20076;-69